Time;durP1;ratioP1;P1;durP2;ratioP2;P2;SDS_P1;SDS_P2;PMS_P1;PMS_P2;Temp;Humidity;BMP_temperature;BMP_pressure;BME280_temperature;BME280_humidity;BME280_pressure;Samples;Min_cycle;Max_cycle;Signal;HPM_P1;HPM_P2
2022/05/05 00:02:15;;;;;;;38.17;24.20;;;12.50;99.90;;;;;;5051873;28;20807;-52
2022/05/05 00:04:40;;;;;;;38.40;24.50;;;12.40;99.90;;;;;;5044216;28;20729;-52
2022/05/05 00:07:06;;;;;;;39.60;24.42;;;12.40;99.90;;;;;;5066770;28;20727;-52
2022/05/05 00:09:32;;;;;;;36.30;23.63;;;12.50;99.90;;;;;;5052236;28;20799;-52
2022/05/05 00:14:42;;;;;;;36.10;23.92;;;12.40;99.90;;;;;;5063203;28;20489;-52
2022/05/05 00:17:10;;;;;;;36.28;23.48;;;12.60;99.90;;;;;;5055405;28;20410;-52
2022/05/05 00:19:37;;;;;;;35.13;23.70;;;12.60;99.90;;;;;;5058481;28;20398;-52
2022/05/05 00:22:04;;;;;;;34.63;23.58;;;12.70;99.90;;;;;;5066237;28;20583;-52
2022/05/05 00:24:30;;;;;;;38.10;25.42;;;12.70;99.90;;;;;;5050792;28;20448;-52
2022/05/05 00:26:56;;;;;;;38.13;24.15;;;12.60;99.90;;;;;;5057263;28;20799;-52
2022/05/05 00:29:23;;;;;;;34.25;23.80;;;12.50;99.90;;;;;;5064423;28;20398;-52
2022/05/05 00:31:50;;;;;;;35.20;23.08;;;12.50;99.90;;;;;;5052599;28;20429;-52
2022/05/05 00:34:16;;;;;;;35.47;22.67;;;12.40;99.90;;;;;;5055764;28;20730;-52
2022/05/05 00:36:42;;;;;;;37.50;23.80;;;12.40;99.90;;;;;;5068944;28;20375;-53
2022/05/05 00:39:11;;;;;;;33.00;22.45;;;12.40;99.90;;;;;;5056141;28;20392;-52
2022/05/05 00:41:39;;;;;;;34.20;22.43;;;12.50;99.90;;;;;;5062900;28;20484;-53
2022/05/05 00:44:06;;;;;;;36.38;23.60;;;12.60;99.90;;;;;;5058290;28;20465;-53
2022/05/05 00:46:33;;;;;;;36.00;23.60;;;12.70;99.90;;;;;;5053773;28;20392;-52
2022/05/05 00:48:59;;;;;;;32.20;22.25;;;12.70;99.90;;;;;;5051094;28;20858;-52
2022/05/05 00:51:26;;;;;;;34.42;22.80;;;12.70;99.90;;;;;;5050996;28;20455;-52
2022/05/05 00:53:52;;;;;;;35.83;24.00;;;12.70;99.90;;;;;;5057337;28;20397;-52
2022/05/05 00:56:19;;;;;;;36.20;23.63;;;12.70;99.90;;;;;;5061316;28;20406;-52
2022/05/05 00:58:46;;;;;;;35.37;23.33;;;12.60;99.90;;;;;;5056103;28;20404;-52
2022/05/05 01:01:17;;;;;;;41.75;25.38;;;12.60;99.90;;;;;;5052911;28;20588;-52
2022/05/05 01:03:43;;;;;;;37.47;25.25;;;12.60;99.90;;;;;;5064331;28;20735;-52
2022/05/05 01:06:12;;;;;;;38.10;25.73;;;12.70;99.90;;;;;;5051558;28;20412;-52
2022/05/05 01:08:37;;;;;;;40.10;25.30;;;12.70;99.90;;;;;;5054778;28;20717;-52
2022/05/05 01:11:03;;;;;;;39.93;25.13;;;12.60;99.90;;;;;;5062935;28;20944;-52
2022/05/05 01:13:32;;;;;;;39.65;25.33;;;12.50;99.90;;;;;;5050156;28;20435;-52
2022/05/05 01:15:59;;;;;;;37.95;24.83;;;12.60;99.90;;;;;;5050914;28;20385;-52
2022/05/05 01:18:25;;;;;;;38.33;24.35;;;12.60;99.90;;;;;;5051126;28;20902;-52
2022/05/05 01:20:53;;;;;;;37.80;23.45;;;12.70;99.90;;;;;;5050140;28;20449;-52
2022/05/05 01:23:19;;;;;;;36.17;24.83;;;12.60;99.90;;;;;;5050123;28;20417;-52
2022/05/05 01:28:31;;;;;;;36.58;24.15;;;12.50;99.90;;;;;;5060128;28;20421;-51
2022/05/05 01:30:58;;;;;;;37.35;24.10;;;12.50;99.90;;;;;;5050425;28;20382;-52
2022/05/05 01:33:25;;;;;;;34.95;23.00;;;12.50;99.90;;;;;;5057537;28;20395;-52
2022/05/05 01:36:00;;;;;;;34.92;23.33;;;12.40;99.90;;;;;;5070543;28;20482;-52
2022/05/05 01:38:35;;;;;;;38.25;23.20;;;12.50;99.90;;;;;;5060726;28;20390;-52
2022/05/05 01:41:05;;;;;;;33.05;22.77;;;12.40;99.90;;;;;;5057748;28;20436;-52
2022/05/05 01:43:31;;;;;;;31.20;21.92;;;12.40;99.90;;;;;;5057923;28;20398;-52
2022/05/05 01:45:57;;;;;;;32.42;22.30;;;12.40;99.90;;;;;;5067148;28;20388;-52
2022/05/05 01:48:23;;;;;;;34.15;21.23;;;12.30;99.90;;;;;;5069272;28;20395;-52
2022/05/05 01:50:48;;;;;;;31.65;21.98;;;12.30;99.90;;;;;;5061042;28;20537;-52
2022/05/05 01:53:14;;;;;;;29.63;20.63;;;12.40;99.90;;;;;;5049889;28;20508;-52
2022/05/05 01:55:40;;;;;;;32.58;21.45;;;12.50;99.90;;;;;;5059123;28;20385;-52
2022/05/05 01:58:06;;;;;;;30.08;21.00;;;12.50;99.90;;;;;;5058748;28;20387;-52
2022/05/05 02:00:32;;;;;;;28.70;20.42;;;12.40;99.90;;;;;;5056432;28;20396;-52
2022/05/05 02:02:58;;;;;;;28.73;19.80;;;12.20;99.90;;;;;;5065384;28;20426;-52
2022/05/05 02:05:24;;;;;;;29.63;21.00;;;12.20;99.90;;;;;;5033820;28;20765;-52
2022/05/05 02:07:50;;;;;;;30.38;20.10;;;12.30;99.90;;;;;;5067182;28;20395;-52
2022/05/05 02:10:17;;;;;;;30.73;20.25;;;12.40;99.90;;;;;;5059313;28;20399;-52
2022/05/05 02:12:45;;;;;;;29.13;20.43;;;12.30;99.90;;;;;;5055748;28;20505;-52
2022/05/05 02:15:13;;;;;;;31.80;20.17;;;12.30;99.90;;;;;;5050401;28;20393;-52
2022/05/05 02:17:40;;;;;;;31.08;20.08;;;12.30;99.90;;;;;;5048779;28;20444;-52
2022/05/05 02:20:08;;;;;;;30.58;20.20;;;12.30;99.90;;;;;;5067848;28;20414;-52
2022/05/05 02:22:34;;;;;;;33.25;19.27;;;12.20;99.90;;;;;;5053913;28;20421;-52
2022/05/05 02:25:00;;;;;;;26.85;18.20;;;12.20;99.90;;;;;;5068059;28;20398;-52
2022/05/05 02:27:26;;;;;;;27.00;17.98;;;12.20;99.90;;;;;;5051103;28;20389;-52
2022/05/05 02:29:52;;;;;;;25.90;17.90;;;12.20;99.90;;;;;;5069534;28;20484;-52
2022/05/05 02:32:19;;;;;;;28.75;18.92;;;12.20;99.90;;;;;;5051161;28;20942;-52
2022/05/05 02:34:46;;;;;;;27.67;18.63;;;12.20;89.10;;;;;;5052667;28;20876;-52
2022/05/05 02:39:56;;;;;;;27.23;18.50;;;12.00;99.90;;;;;;5058956;28;20480;-52
2022/05/05 02:42:21;;;;;;;26.35;17.95;;;12.00;99.90;;;;;;5062544;28;20495;-52
2022/05/05 02:44:47;;;;;;;25.90;17.37;;;11.90;97.40;;;;;;5066713;28;20388;-52
2022/05/05 02:47:13;;;;;;;26.65;17.45;;;11.90;92.00;;;;;;5072071;28;20391;-52
2022/05/05 02:49:39;;;;;;;30.03;19.50;;;11.80;98.70;;;;;;5057270;28;20408;-52
2022/05/05 02:52:08;;;;;;;28.52;17.45;;;11.70;99.30;;;;;;5069583;28;20760;-52
2022/05/05 02:54:47;;;;;;;26.42;17.60;;;11.60;99.90;;;;;;5063602;28;20375;-52
2022/05/05 02:57:14;;;;;;;26.23;17.83;;;11.50;99.90;;;;;;5067275;28;20403;-52
2022/05/05 02:59:40;;;;;;;26.55;17.73;;;11.60;99.90;;;;;;5069528;28;20384;-52
2022/05/05 03:02:05;;;;;;;28.05;18.00;;;11.60;99.90;;;;;;5056715;28;20462;-52
2022/05/05 03:04:31;;;;;;;26.93;17.87;;;11.60;99.90;;;;;;5063583;28;20421;-52
2022/05/05 03:06:57;;;;;;;24.48;17.40;;;11.60;99.90;;;;;;5073047;28;20415;-52
2022/05/05 03:09:22;;;;;;;28.73;17.58;;;11.50;99.90;;;;;;5057271;28;20412;-52
2022/05/05 03:11:48;;;;;;;28.30;17.30;;;11.50;99.90;;;;;;5052738;28;20865;-52
2022/05/05 03:14:13;;;;;;;27.20;16.63;;;11.50;99.90;;;;;;5053696;28;20739;-52
2022/05/05 03:16:39;;;;;;;28.67;18.70;;;11.50;99.90;;;;;;5058177;28;20391;-52
2022/05/05 03:19:05;;;;;;;25.63;17.60;;;11.60;96.60;;;;;;5072040;28;20379;-52
2022/05/05 03:21:30;;;;;;;24.93;16.70;;;11.70;98.10;;;;;;5051648;28;20901;-52
2022/05/05 03:23:56;;;;;;;25.70;17.60;;;11.70;90.00;;;;;;5052941;28;20869;-52
2022/05/05 03:26:22;;;;;;;27.38;17.90;;;11.70;93.80;;;;;;5053371;28;20453;-52
2022/05/05 03:28:47;;;;;;;28.43;18.57;;;11.70;82.70;;;;;;5054908;28;20435;-52
2022/05/05 03:31:13;;;;;;;27.48;18.20;;;11.70;65.20;;;;;;5059013;28;20778;-52
2022/05/05 03:33:39;;;;;;;26.05;17.90;;;11.70;78.20;;;;;;5070327;28;21015;-52
2022/05/05 03:36:04;;;;;;;24.30;16.60;;;11.60;84.20;;;;;;5072378;28;20384;-51
2022/05/05 03:38:30;;;;;;;30.75;17.60;;;11.60;99.00;;;;;;5056625;28;20431;-52
2022/05/05 03:40:56;;;;;;;25.30;17.25;;;11.70;96.00;;;;;;5045605;28;20396;-52
2022/05/05 03:43:22;;;;;;;24.65;17.17;;;11.70;92.00;;;;;;5057657;28;20449;-52
2022/05/05 03:45:47;;;;;;;24.00;16.47;;;11.60;90.50;;;;;;5067929;28;20386;-52
2022/05/05 03:48:13;;;;;;;24.70;17.40;;;11.70;99.90;;;;;;5072381;28;20384;-52
2022/05/05 03:50:39;;;;;;;24.42;16.17;;;11.70;99.90;;;;;;5054177;28;20815;-52
2022/05/05 03:53:05;;;;;;;24.30;16.70;;;11.70;91.60;;;;;;5051894;28;20382;-52
2022/05/05 03:55:31;;;;;;;27.60;17.42;;;11.80;92.60;;;;;;5054238;28;20889;-52
2022/05/05 03:57:57;;;;;;;24.20;16.40;;;11.90;90.50;;;;;;5070776;28;20387;-52
2022/05/05 04:00:23;;;;;;;24.90;16.50;;;11.90;73.40;;;;;;5071015;28;20383;-52
2022/05/05 04:05:35;;;;;;;26.70;17.23;;;12.00;75.50;;;;;;5051585;28;20451;-52
2022/05/05 04:08:04;;;;;;;28.67;18.13;;;12.00;52.50;;;;;;5060483;28;20458;-52
2022/05/05 04:10:30;;;;;;;26.17;17.77;;;12.10;67.30;;;;;;5055894;28;20404;-52
2022/05/05 04:12:56;;;;;;;26.60;16.92;;;12.10;69.10;;;;;;5050453;28;20473;-52
2022/05/05 04:15:23;;;;;;;23.60;16.40;;;12.20;51.30;;;;;;5057341;28;20394;-52
2022/05/05 04:17:49;;;;;;;25.02;17.50;;;12.20;27.80;;;;;;5051726;28;20412;-53
2022/05/05 04:20:14;;;;;;;27.58;18.10;;;12.10;31.30;;;;;;5053038;28;20389;-52
2022/05/05 04:22:41;;;;;;;25.52;17.67;;;12.10;39.00;;;;;;5059537;28;20416;-53
2022/05/05 04:25:08;;;;;;;24.77;17.48;;;12.20;30.70;;;;;;5056769;28;20712;-53
2022/05/05 04:27:35;;;;;;;26.87;17.90;;;12.10;31.10;;;;;;5068850;28;20402;-53
2022/05/05 04:30:04;;;;;;;26.30;17.60;;;12.10;45.30;;;;;;5056613;28;20416;-54
2022/05/05 04:32:30;;;;;;;25.80;17.13;;;12.10;76.40;;;;;;5050444;28;20378;-53
2022/05/05 04:34:56;;;;;;;25.88;17.80;;;12.20;41.70;;;;;;5062690;28;20887;-56
2022/05/05 04:37:22;;;;;;;27.02;17.75;;;12.20;41.10;;;;;;5071174;28;20394;-53
2022/05/05 04:39:48;;;;;;;27.20;18.08;;;12.20;35.00;;;;;;5060372;28;20401;-53
2022/05/05 04:42:15;;;;;;;23.63;17.00;;;12.20;38.20;;;;;;5067794;28;20421;-53
2022/05/05 04:44:41;;;;;;;26.55;18.55;;;12.20;21.40;;;;;;5068397;28;20474;-53
2022/05/05 04:47:07;;;;;;;25.58;17.90;;;12.20;74.10;;;;;;5066402;28;20946;-53
2022/05/05 04:49:33;;;;;;;27.95;18.90;;;12.40;86.40;;;;;;5067254;28;20419;-52
2022/05/05 04:51:59;;;;;;;29.17;19.00;;;12.50;51.60;;;;;;5067845;28;20450;-53
2022/05/05 04:54:25;;;;;;;28.83;19.27;;;12.70;53.50;;;;;;5065178;28;20391;-53
2022/05/05 04:56:50;;;;;;;26.60;18.60;;;12.70;27.80;;;;;;5061225;28;20480;-53
2022/05/05 04:59:16;;;;;;;27.40;19.40;;;12.80;27.60;;;;;;5062658;28;20398;-53
2022/05/05 05:01:42;;;;;;;27.60;19.60;;;12.90;16.60;;;;;;5056273;28;20546;-53
2022/05/05 05:04:07;;;;;;;31.47;20.33;;;13.10;9.30;;;;;;5053803;28;20423;-53
2022/05/05 05:06:34;;;;;;;30.05;20.30;;;13.20;1.00;;;;;;5067466;28;20877;-53
2022/05/05 05:09:00;;;;;;;29.38;20.48;;;13.20;1.00;;;;;;5051439;28;20400;-53
2022/05/05 05:11:25;;;;;;;29.15;19.85;;;13.00;1.00;;;;;;5067721;28;20393;-53
2022/05/05 05:13:51;;;;;;;30.60;21.30;;;12.90;1.00;;;;;;5052516;28;20398;-52
2022/05/05 05:16:17;;;;;;;30.60;20.93;;;12.90;1.00;;;;;;5050338;28;20382;-52
2022/05/05 05:18:43;;;;;;;31.85;22.20;;;13.10;1.00;;;;;;5049761;28;20877;-53
2022/05/05 05:21:08;;;;;;;30.25;20.35;;;13.20;1.00;;;;;;5056040;28;20489;-53
2022/05/05 05:23:35;;;;;;;30.15;20.45;;;13.40;1.00;;;;;;5061750;28;20469;-52
2022/05/05 05:26:01;;;;;;;28.90;19.77;;;13.50;1.00;;;;;;5059071;28;20397;-53
2022/05/05 05:28:27;;;;;;;31.10;21.83;;;13.70;1.00;;;;;;5060074;28;20442;-53
2022/05/05 05:30:52;;;;;;;31.47;24.33;;;13.90;1.00;;;;;;5060446;28;20405;-53
2022/05/05 05:33:18;;;;;;;28.00;20.70;;;14.10;1.00;;;;;;5056583;28;20794;-53
2022/05/05 05:35:47;;;;;;;29.40;20.63;;;14.20;1.00;;;;;;5063979;28;20990;-53
2022/05/05 05:38:13;;;;;;;29.35;21.05;;;14.10;1.00;;;;;;5061462;28;20445;-52
2022/05/05 05:40:40;;;;;;;28.75;20.30;;;14.00;1.00;;;;;;5058621;28;20480;-53
2022/05/05 05:43:06;;;;;;;29.50;20.37;;;13.90;1.00;;;;;;5059693;28;20415;-53
2022/05/05 05:45:32;;;;;;;26.65;19.60;;;13.90;1.00;;;;;;5059427;28;20397;-53
2022/05/05 05:47:58;;;;;;;28.43;19.97;;;13.90;1.00;;;;;;5062590;28;20792;-53
2022/05/05 05:50:24;;;;;;;26.83;20.77;;;14.00;1.00;;;;;;5056877;28;20748;-53
2022/05/05 05:52:49;;;;;;;28.60;19.30;;;14.00;1.00;;;;;;5059304;28;20402;-53
2022/05/05 05:55:15;;;;;;;28.38;20.83;;;14.00;1.00;;;;;;5059585;28;20800;-53
2022/05/05 05:57:41;;;;;;;27.60;20.17;;;14.00;1.00;;;;;;5058785;28;20384;-53
2022/05/05 06:00:08;;;;;;;27.73;20.03;;;14.00;1.00;;;;;;5057326;28;20903;-53
2022/05/05 06:05:18;;;;;;;26.98;19.90;;;14.10;1.00;;;;;;5055699;28;20508;-53
2022/05/05 06:07:44;;;;;;;27.00;20.20;;;14.10;1.00;;;;;;5061201;28;20984;-53
2022/05/05 06:10:10;;;;;;;26.25;17.70;;;14.20;1.00;;;;;;5058717;28;20401;-52
2022/05/05 06:12:36;;;;;;;22.67;15.93;;;14.40;1.00;;;;;;5067970;28;20388;-53
2022/05/05 06:15:02;;;;;;;22.02;15.30;;;14.40;1.00;;;;;;5067161;28;20400;-53
2022/05/05 06:17:28;;;;;;;21.67;15.25;;;14.20;1.00;;;;;;5068216;28;20390;-53
2022/05/05 06:19:53;;;;;;;21.20;15.70;;;14.20;1.00;;;;;;5068690;28;20479;-53
2022/05/05 06:22:19;;;;;;;19.57;13.80;;;14.30;1.00;;;;;;5064238;28;20500;-52
2022/05/05 06:24:46;;;;;;;20.20;13.30;;;14.30;1.00;;;;;;5053022;28;20588;-52
2022/05/05 06:27:12;;;;;;;21.15;14.45;;;14.40;1.00;;;;;;5069132;28;20413;-53
2022/05/05 06:29:38;;;;;;;20.88;14.05;;;14.50;1.00;;;;;;5068453;28;20425;-53
2022/05/05 06:32:04;;;;;;;17.37;12.20;;;14.80;1.00;;;;;;5062694;28;20395;-53
2022/05/05 06:34:30;;;;;;;18.42;12.50;;;14.60;99.90;;;;;;5067480;28;20396;-53
2022/05/05 06:36:56;;;;;;;17.87;12.23;;;14.60;99.90;;;;;;5069278;28;20471;-53
2022/05/05 06:39:21;;;;;;;19.30;12.35;;;14.60;99.90;;;;;;5065267;28;21184;-53
2022/05/05 06:41:47;;;;;;;24.05;12.70;;;14.60;99.90;;;;;;5054388;28;20472;-53
2022/05/05 06:44:12;;;;;;;17.83;12.30;;;14.60;99.90;;;;;;5069637;28;20475;-53
2022/05/05 06:46:38;;;;;;;18.00;12.17;;;14.60;99.90;;;;;;5068485;28;20375;-53
2022/05/05 06:49:05;;;;;;;16.98;12.25;;;14.70;99.90;;;;;;5067111;28;20395;-53
2022/05/05 06:51:30;;;;;;;16.60;11.70;;;14.80;99.90;;;;;;5061459;28;20409;-53
2022/05/05 06:53:56;;;;;;;17.17;12.17;;;14.80;99.90;;;;;;5065737;28;20391;-53
2022/05/05 06:56:24;;;;;;;18.73;12.50;;;14.70;75.60;;;;;;5069049;28;20383;-53
2022/05/05 06:58:49;;;;;;;20.05;12.90;;;14.70;91.50;;;;;;5067030;28;20887;-53
2022/05/05 07:06:43;;;;;;;17.95;12.13;;;14.20;99.90;;;;;;5068343;28;20441;-53
2022/05/05 07:11:54;;;;;;;18.80;13.07;;;13.90;1.00;;;;;;5068234;28;20423;-53
2022/05/05 07:14:19;;;;;;;18.25;12.30;;;13.90;1.00;;;;;;5061982;28;20471;-52
2022/05/05 07:16:45;;;;;;;19.43;12.50;;;14.00;1.00;;;;;;5058534;28;20483;-52
2022/05/05 07:19:11;;;;;;;20.33;13.57;;;14.00;1.00;;;;;;5053673;28;20458;-54
2022/05/05 07:21:37;;;;;;;18.80;13.10;;;14.00;1.00;;;;;;5055631;28;20488;-52
2022/05/05 07:24:04;;;;;;;17.83;12.60;;;14.10;1.00;;;;;;5063166;28;20465;-52
2022/05/05 07:26:29;;;;;;;19.15;12.60;;;14.20;1.00;;;;;;5068789;28;20449;-53
2022/05/05 07:28:55;;;;;;;18.13;12.15;;;14.30;1.00;;;;;;5047189;28;20794;-53
2022/05/05 07:31:21;;;;;;;17.60;12.30;;;14.30;1.00;;;;;;5068436;28;20391;-52
2022/05/05 07:33:46;;;;;;;20.25;13.95;;;14.20;1.00;;;;;;5068364;28;21017;-52
2022/05/05 07:36:12;;;;;;;18.20;12.80;;;14.30;1.00;;;;;;5061700;28;20451;-52
2022/05/05 07:38:38;;;;;;;20.47;13.50;;;14.20;1.00;;;;;;5069625;28;20498;-53
2022/05/05 07:41:04;;;;;;;18.33;12.88;;;14.30;1.00;;;;;;5064108;28;20395;-52
2022/05/05 07:43:30;;;;;;;19.95;13.40;;;14.20;1.00;;;;;;5069555;28;20870;-51
2022/05/05 07:45:55;;;;;;;18.70;12.80;;;14.40;1.00;;;;;;5070293;28;20391;-52
2022/05/05 07:48:21;;;;;;;22.08;13.80;;;14.70;1.00;;;;;;5070202;28;20383;-51
2022/05/05 07:50:47;;;;;;;19.63;12.95;;;14.90;1.00;;;;;;5069394;28;20387;-52
2022/05/05 07:53:14;;;;;;;19.27;13.05;;;15.20;1.00;;;;;;5069940;28;20399;-52
2022/05/05 07:55:39;;;;;;;17.55;12.82;;;15.50;99.90;;;;;;5070277;28;20394;-52
2022/05/05 07:58:05;;;;;;;18.40;12.80;;;15.30;99.90;;;;;;5063573;28;20487;-52
2022/05/05 08:00:31;;;;;;;19.67;13.30;;;15.30;1.00;;;;;;5069274;28;20384;-52
2022/05/05 08:02:57;;;;;;;18.88;13.68;;;15.40;99.90;;;;;;5065137;28;20520;-52
2022/05/05 08:05:23;;;;;;;18.05;13.18;;;15.50;55.40;;;;;;5065881;28;20372;-52
2022/05/05 08:07:51;;;;;;;20.60;13.85;;;15.50;1.00;;;;;;5070460;28;21222;-52
2022/05/05 08:10:18;;;;;;;20.80;14.52;;;15.20;1.00;;;;;;5071604;28;20395;-52
2022/05/05 08:12:45;;;;;;;22.23;14.57;;;15.10;1.00;;;;;;5070242;28;20453;-52
2022/05/05 08:15:12;;;;;;;19.77;15.20;;;15.30;74.70;;;;;;5063234;28;20427;-52
2022/05/05 08:17:38;;;;;;;22.40;15.38;;;15.40;1.00;;;;;;5069780;28;20394;-52
2022/05/05 08:20:05;;;;;;;19.70;14.47;;;15.10;1.00;;;;;;5052065;28;20761;-51
2022/05/05 08:22:31;;;;;;;22.47;14.40;;;15.10;1.00;;;;;;5060895;28;20507;-52
2022/05/05 08:30:25;;;;;;;21.73;14.45;;;13.80;99.90;;;;;;5067052;28;20403;-51
2022/05/05 08:32:51;;;;;;;22.13;14.63;;;15.10;1.00;;;;;;5070333;28;20392;-53
2022/05/05 08:35:17;;;;;;;23.05;15.07;;;15.00;99.90;;;;;;5070603;28;20702;-52
2022/05/05 08:37:42;;;;;;;21.10;14.07;;;15.20;99.90;;;;;;5068829;28;20438;-52
2022/05/05 08:40:11;;;;;;;19.57;14.57;;;15.40;93.90;;;;;;5067421;28;20403;-52
2022/05/05 08:42:37;;;;;;;21.75;14.95;;;15.40;1.00;;;;;;5064869;28;20776;-57
2022/05/05 08:45:04;;;;;;;21.80;14.97;;;15.50;55.30;;;;;;5069057;28;20386;-52
2022/05/05 08:47:32;;;;;;;22.90;15.50;;;15.80;1.00;;;;;;5065409;28;20399;-52
2022/05/05 08:49:59;;;;;;;26.67;15.95;;;15.70;1.00;;;;;;5062494;28;20389;-52
2022/05/05 08:52:26;;;;;;;24.77;15.60;;;15.90;99.90;;;;;;5062944;28;20438;-51
2022/05/05 08:54:51;;;;;;;25.85;16.30;;;16.10;99.90;;;;;;5062263;28;20396;-51
2022/05/05 08:57:17;;;;;;;23.70;16.58;;;16.30;1.00;;;;;;5066814;28;20380;-51
2022/05/05 08:59:43;;;;;;;22.60;15.80;;;16.30;99.90;;;;;;5068357;28;21731;-52
2022/05/05 09:02:10;;;;;;;23.40;16.90;;;16.40;99.90;;;;;;5065219;28;20413;-51
2022/05/05 09:04:36;;;;;;;25.20;16.95;;;16.40;99.90;;;;;;5066372;28;20527;-51
2022/05/05 09:07:02;;;;;;;22.63;17.45;;;16.30;99.90;;;;;;5066446;28;20400;-52
2022/05/05 09:09:30;;;;;;;23.50;17.52;;;16.30;1.00;;;;;;5066371;28;20453;-52
2022/05/05 09:12:12;;;;;;;26.73;19.40;;;16.20;99.90;;;;;;5066420;28;20472;-51
2022/05/05 09:14:47;;;;;;;26.10;17.25;;;16.30;99.90;;;;;;5063892;28;20948;-51
2022/05/05 09:17:17;;;;;;;25.45;18.42;;;16.10;1.00;;;;;;5063103;28;20442;-51
2022/05/05 09:19:46;;;;;;;24.10;17.53;;;16.10;1.00;;;;;;5061509;28;20408;-51
2022/05/05 09:22:13;;;;;;;25.90;19.33;;;16.00;99.90;;;;;;5064511;28;20434;-51
2022/05/05 09:24:43;;;;;;;25.70;18.83;;;16.00;1.00;;;;;;5064977;28;20406;-51
2022/05/05 09:27:21;;;;;;;26.95;20.20;;;16.10;1.00;;;;;;5064076;28;20399;-51
2022/05/05 09:30:00;;;;;;;26.77;19.13;;;16.20;99.90;;;;;;5068598;28;20402;-51
2022/05/05 09:32:30;;;;;;;25.08;19.20;;;16.00;99.90;;;;;;5053231;28;20428;-51
2022/05/05 09:35:00;;;;;;;26.17;19.38;;;15.90;1.00;;;;;;5050881;28;20451;-52
2022/05/05 09:37:26;;;;;;;26.10;19.75;;;16.20;1.00;;;;;;5062691;28;20438;-51
2022/05/05 09:39:56;;;;;;;27.70;20.05;;;16.30;1.00;;;;;;5066372;28;20527;-51
2022/05/05 09:42:37;;;;;;;26.75;20.08;;;16.40;1.00;;;;;;5066042;28;20417;-52
2022/05/05 09:45:20;;;;;;;28.33;19.95;;;16.30;99.90;;;;;;5066834;28;20403;-51
2022/05/05 09:47:53;;;;;;;27.88;21.08;;;16.40;99.90;;;;;;5064169;28;20416;-51
2022/05/05 09:50:21;;;;;;;28.50;20.83;;;16.20;99.90;;;;;;5062353;28;20435;-51
2022/05/05 09:58:22;;;;;;;28.70;20.47;;;15.90;99.90;;;;;;5057684;28;20460;-51
2022/05/05 10:06:29;;;;;;;30.13;21.52;;;16.00;99.90;;;;;;5069593;28;20525;-51
2022/05/05 10:08:57;;;;;;;27.63;19.98;;;16.50;1.00;;;;;;5069439;28;20425;-52
2022/05/05 10:11:23;;;;;;;27.10;19.75;;;17.00;99.90;;;;;;5069263;28;20384;-52
2022/05/05 10:13:50;;;;;;;26.92;20.15;;;16.90;1.00;;;;;;5062034;28;20388;-52
2022/05/05 10:16:18;;;;;;;32.13;20.50;;;17.00;1.00;;;;;;5049531;28;20387;-51
2022/05/05 10:18:44;;;;;;;30.13;21.10;;;17.20;1.00;;;;;;5053259;28;20505;-52
2022/05/05 10:21:19;;;;;;;27.45;19.73;;;17.60;1.00;;;;;;5069476;28;20442;-51
2022/05/05 10:23:56;;;;;;;28.75;19.92;;;17.20;1.00;;;;;;5068694;28;20856;-52
2022/05/05 10:26:23;;;;;;;27.63;20.00;;;17.20;1.00;;;;;;5053835;28;20851;-52
2022/05/05 10:28:49;;;;;;;29.95;21.35;;;17.60;1.00;;;;;;5052994;28;20380;-52
2022/05/05 10:31:30;;;;;;;27.67;21.75;;;17.80;99.90;;;;;;5069368;28;20437;-51
2022/05/05 10:34:07;;;;;;;31.83;22.23;;;17.90;99.90;;;;;;5057503;28;20430;-51
2022/05/05 10:36:34;;;;;;;31.33;21.65;;;17.60;99.90;;;;;;5048549;28;20396;-51
2022/05/05 10:39:19;;;;;;;28.38;20.98;;;17.60;99.90;;;;;;5063836;28;20388;-52
2022/05/05 10:41:45;;;;;;;27.77;21.02;;;17.80;99.90;;;;;;5050971;28;20461;-52
2022/05/05 10:44:19;;;;;;;29.27;19.60;;;18.20;78.70;;;;;;5069387;28;20384;-52
2022/05/05 10:46:54;;;;;;;30.33;21.13;;;18.00;41.10;;;;;;5065524;28;20768;-52
2022/05/05 10:52:12;;;;;;;28.70;21.02;;;17.70;99.90;;;;;;5054221;28;20494;-52
2022/05/05 10:54:48;;;;;;;29.23;22.05;;;17.70;99.90;;;;;;5065835;28;20552;-51
2022/05/05 10:57:25;;;;;;;30.88;20.73;;;17.70;99.90;;;;;;5062940;28;20400;-52
2022/05/05 11:00:13;;;;;;;32.22;22.08;;;17.70;99.90;;;;;;5064662;28;20395;-51
2022/05/05 11:02:57;;;;;;;31.33;22.60;;;17.60;99.90;;;;;;5064739;28;20418;-53
2022/05/05 11:05:30;;;;;;;32.15;23.13;;;17.60;99.90;;;;;;5066280;28;20406;-53
2022/05/05 11:08:14;;;;;;;31.80;23.27;;;17.70;99.90;;;;;;5064822;28;20376;-53
2022/05/05 11:10:47;;;;;;;32.35;23.10;;;18.00;99.90;;;;;;5061178;28;20468;-53
2022/05/05 11:13:42;;;;;;;34.55;23.52;;;18.00;99.90;;;;;;5064959;28;20429;-53
2022/05/05 11:22:13;;;;;;;36.42;24.27;;;17.90;99.90;;;;;;5062697;28;20430;-53
2022/05/05 11:24:47;;;;;;;36.63;24.88;;;17.70;99.90;;;;;;5067933;28;20388;-53
2022/05/05 11:27:18;;;;;;;36.10;24.70;;;17.40;99.90;;;;;;5071997;28;20433;-54
2022/05/05 11:29:50;;;;;;;37.70;24.70;;;17.20;99.90;;;;;;5072007;28;20392;-53
2022/05/05 11:32:17;;;;;;;39.65;26.23;;;17.10;99.90;;;;;;5072840;28;20411;-53
2022/05/05 11:34:45;;;;;;;34.47;25.05;;;17.00;99.90;;;;;;5071175;28;20394;-53
2022/05/05 11:37:11;;;;;;;38.72;25.65;;;17.20;99.90;;;;;;5072440;28;20367;-53
2022/05/05 11:39:38;;;;;;;36.70;26.17;;;16.90;99.90;;;;;;5071326;28;20860;-53
2022/05/05 11:42:05;;;;;;;37.28;25.85;;;16.60;99.90;;;;;;5072093;28;20413;-53
2022/05/05 11:44:35;;;;;;;39.95;27.30;;;16.60;99.90;;;;;;5071788;28;20399;-53
2022/05/05 11:47:08;;;;;;;39.78;26.55;;;16.50;1.00;;;;;;5072393;28;20376;-53
2022/05/05 11:49:35;;;;;;;37.60;27.30;;;16.20;1.00;;;;;;5071462;28;20433;-53
2022/05/05 11:52:00;;;;;;;38.92;26.08;;;16.30;99.90;;;;;;5072357;28;20469;-53
2022/05/05 11:54:32;;;;;;;42.70;27.03;;;16.30;1.00;;;;;;5072362;28;20482;-53
2022/05/05 11:56:58;;;;;;;39.05;25.90;;;16.20;99.90;;;;;;5071813;28;20513;-53
2022/05/05 12:02:13;;;;;;;41.58;25.90;;;16.20;99.90;;;;;;5071900;28;20499;-53
2022/05/05 12:04:44;;;;;;;40.05;25.90;;;16.30;1.00;;;;;;5051744;28;20390;-53
2022/05/05 12:07:19;;;;;;;41.03;25.95;;;16.20;99.90;;;;;;5051972;28;20435;-53
2022/05/05 12:09:49;;;;;;;44.40;26.23;;;16.10;99.50;;;;;;5050632;28;20388;-53
2022/05/05 12:12:16;;;;;;;41.53;26.17;;;15.70;1.00;;;;;;5051369;28;21016;-53
2022/05/05 12:15:04;;;;;;;43.10;27.08;;;15.50;99.90;;;;;;5078684;28;20907;-53
2022/05/05 12:17:39;;;;;;;42.38;26.25;;;15.60;69.80;;;;;;5091560;28;20385;-53
2022/05/05 12:20:07;;;;;;;44.58;27.42;;;15.60;99.90;;;;;;5091842;28;20393;-53
2022/05/05 12:22:38;;;;;;;41.35;25.70;;;15.30;99.90;;;;;;5091036;28;20414;-53
2022/05/05 12:25:14;;;;;;;46.60;27.63;;;15.30;99.90;;;;;;5092179;28;20384;-53
2022/05/05 12:27:44;;;;;;;47.50;27.35;;;15.30;99.90;;;;;;5090668;28;20754;-53
2022/05/05 12:30:10;;;;;;;46.33;28.77;;;15.40;99.90;;;;;;5091855;28;20831;-54
2022/05/05 12:32:49;;;;;;;44.13;26.75;;;15.40;99.90;;;;;;5090847;28;20414;-53
2022/05/05 12:35:17;;;;;;;43.22;26.85;;;15.40;1.00;;;;;;5070319;28;20474;-53
2022/05/05 12:37:43;;;;;;;45.90;28.58;;;15.30;99.90;;;;;;5068140;28;20748;-53
2022/05/05 12:40:09;;;;;;;45.88;28.70;;;15.60;99.90;;;;;;5058288;28;20406;-53
2022/05/05 12:42:41;;;;;;;47.50;28.57;;;15.50;99.90;;;;;;5070213;28;20408;-53
2022/05/05 12:45:26;;;;;;;43.03;27.27;;;15.50;99.90;;;;;;5069264;28;20375;-51
2022/05/05 12:47:53;;;;;;;42.10;28.15;;;15.40;99.90;;;;;;5060021;28;20421;-55
2022/05/05 12:50:40;;;;;;;44.63;28.38;;;15.40;99.90;;;;;;5070344;28;20383;-53
2022/05/05 13:01:26;;;;;;;42.72;27.58;;;16.20;71.00;;;;;;5061891;28;20438;-54
2022/05/05 13:03:56;;;;;;;42.88;26.70;;;16.20;1.00;;;;;;5058573;28;20768;-54
2022/05/05 13:06:25;;;;;;;44.42;26.50;;;16.20;99.90;;;;;;5062730;28;20465;-54
2022/05/05 13:08:52;;;;;;;40.30;27.13;;;16.10;1.00;;;;;;5063824;28;20971;-54
2022/05/05 13:11:18;;;;;;;42.67;28.63;;;16.00;99.90;;;;;;5065924;28;20380;-54
2022/05/05 13:13:45;;;;;;;42.73;28.17;;;15.90;1.00;;;;;;5063520;28;20463;-54
2022/05/05 13:16:11;;;;;;;40.92;27.55;;;15.90;76.10;;;;;;5056790;28;20387;-54
2022/05/05 13:18:37;;;;;;;43.78;27.20;;;15.80;1.00;;;;;;5059961;28;20433;-53
2022/05/05 13:21:03;;;;;;;40.95;27.65;;;15.60;99.90;;;;;;5062274;28;20415;-54
2022/05/05 13:23:28;;;;;;;39.30;26.45;;;15.60;99.90;;;;;;5063780;28;20411;-54
2022/05/05 13:25:54;;;;;;;42.37;26.67;;;15.80;99.90;;;;;;5061673;28;20411;-54
2022/05/05 13:28:20;;;;;;;40.40;26.50;;;15.60;1.00;;;;;;5060208;28;20461;-54
2022/05/05 13:30:46;;;;;;;39.92;25.88;;;15.60;1.00;;;;;;5059899;28;20385;-54
2022/05/05 13:33:12;;;;;;;40.13;26.55;;;15.60;99.90;;;;;;5062607;28;20449;-54